createdAt,value
2022-12-28T00:01:49.057Z,82.98
2022-12-28T00:04:16.106Z,82.99
2022-12-28T00:06:43.136Z,82.78
2022-12-28T00:09:11.893Z,82.15
2022-12-28T00:11:38.805Z,81.48
2022-12-28T00:14:24.537Z,81.65
2022-12-28T00:16:51.527Z,81.81
2022-12-28T00:19:18.476Z,81.32
2022-12-28T00:21:46.184Z,81.21
2022-12-28T00:24:24.527Z,81.34
2022-12-28T00:26:52.315Z,80.95
2022-12-28T00:29:20.220Z,80.43
2022-12-28T00:31:47.263Z,80.45
2022-12-28T00:34:14.847Z,80.40
2022-12-28T00:37:10.804Z,80.57
2022-12-28T00:39:29.615Z,81.25
2022-12-28T00:41:56.515Z,81.75
2022-12-28T00:44:23.515Z,82.18
2022-12-28T00:46:50.647Z,81.91
2022-12-28T00:49:18.509Z,82.43
2022-12-28T00:51:45.518Z,82.59
2022-12-28T00:54:12.651Z,82.98
2022-12-28T00:56:43.083Z,83.00
2022-12-28T00:59:10.482Z,82.81
2022-12-28T01:01:37.623Z,83.12
2022-12-28T01:04:05.237Z,83.64
2022-12-28T01:06:32.083Z,84.24
2022-12-28T01:08:59.931Z,84.54
2022-12-28T01:11:29.545Z,84.77
2022-12-28T01:13:59.461Z,84.74
2022-12-28T01:16:29.459Z,84.87
2022-12-28T01:18:58.673Z,85.03
2022-12-28T01:21:28.197Z,85.65
2022-12-28T01:23:58.219Z,85.39
2022-12-28T01:26:26.599Z,85.14
2022-12-28T01:28:53.830Z,85.46
2022-12-28T01:31:21.993Z,85.39
2022-12-28T01:33:51.158Z,85.81
2022-12-28T01:36:19.350Z,85.20
2022-12-28T01:38:47.365Z,84.86
2022-12-28T01:41:17.261Z,84.11
2022-12-28T01:44:07.553Z,83.70
2022-12-28T01:46:45.760Z,83.57
2022-12-28T01:49:27.496Z,83.79
2022-12-28T01:52:00.686Z,84.16
2022-12-28T01:54:34.224Z,84.21
2022-12-28T01:57:03.426Z,84.52
2022-12-28T01:59:35.919Z,84.97
2022-12-28T02:02:03.529Z,84.62
2022-12-28T02:04:30.924Z,84.28
2022-12-28T02:06:58.082Z,83.78
2022-12-28T02:09:32.378Z,84.58
2022-12-28T02:12:00.804Z,84.22
2022-12-28T02:14:28.873Z,83.90
2022-12-28T02:16:56.157Z,83.84
2022-12-28T02:19:41.191Z,83.55
2022-12-28T02:22:33.233Z,82.95
2022-12-28T02:25:14.149Z,82.87
2022-12-28T02:27:50.143Z,82.30
2022-12-28T02:30:17.735Z,81.87
2022-12-28T02:32:59.932Z,81.99
2022-12-28T02:35:32.991Z,82.13
2022-12-28T02:38:07.755Z,81.97
2022-12-28T02:40:53.688Z,80.98
2022-12-28T02:43:23.296Z,81.63
2022-12-28T02:46:08.740Z,81.41
2022-12-28T02:49:01.687Z,81.09
2022-12-28T02:52:02.867Z,81.29
2022-12-28T02:55:22.661Z,80.64
2022-12-28T02:58:14.659Z,79.24
2022-12-28T03:00:53.550Z,78.01
2022-12-28T03:03:32.340Z,78.16
2022-12-28T03:06:44.446Z,77.62
2022-12-28T03:09:38.527Z,76.93
2022-12-28T03:12:05.795Z,75.30
2022-12-28T03:14:40.816Z,74.98
2022-12-28T03:17:28.488Z,75.03
2022-12-28T03:20:20.724Z,74.92
2022-12-28T03:23:08.241Z,74.64
2022-12-28T03:25:59.075Z,74.52
2022-12-28T03:28:53.834Z,74.06
2022-12-28T03:31:25.249Z,73.70
2022-12-28T03:34:06.969Z,73.68
2022-12-28T03:36:48.749Z,73.16
2022-12-28T03:39:52.057Z,73.41
2022-12-28T03:42:39.044Z,73.83
2022-12-28T03:45:46.714Z,74.64
2022-12-28T03:48:13.360Z,74.90
2022-12-28T03:50:44.411Z,75.24
2022-12-28T03:53:17.087Z,74.53
2022-12-28T03:55:45.515Z,74.48
2022-12-28T03:58:14.614Z,74.41
2022-12-28T04:00:41.972Z,74.12
2022-12-28T04:03:08.997Z,73.51
2022-12-28T04:05:36.165Z,72.89
2022-12-28T04:08:03.108Z,72.40
2022-12-28T04:10:30.158Z,72.63
2022-12-28T04:12:58.296Z,73.00
2022-12-28T04:15:25.341Z,72.67
2022-12-28T04:17:52.692Z,72.24
2022-12-28T04:20:19.676Z,72.24
2022-12-28T04:22:46.716Z,71.76
2022-12-28T04:25:14.367Z,72.33
2022-12-28T04:27:41.294Z,72.77
2022-12-28T04:30:18.870Z,72.84
2022-12-28T04:32:46.241Z,73.14
2022-12-28T04:35:14.118Z,72.82
2022-12-28T04:37:48.846Z,72.58
2022-12-28T04:40:15.882Z,71.92
2022-12-28T04:42:42.859Z,71.32
2022-12-28T04:45:10.186Z,70.73
2022-12-28T04:47:37.035Z,70.92
2022-12-28T04:50:04.036Z,70.50
2022-12-28T04:52:30.970Z,70.09
2022-12-28T04:54:58.031Z,69.92
2022-12-28T04:57:24.935Z,69.89
2022-12-28T04:59:51.941Z,69.90
2022-12-28T05:02:18.917Z,69.56
2022-12-28T05:04:50.333Z,69.38
2022-12-28T05:07:17.215Z,68.76
2022-12-28T05:09:44.078Z,68.36
2022-12-28T05:12:11.390Z,68.14
2022-12-28T05:14:38.262Z,67.80
2022-12-28T05:17:05.552Z,67.73
2022-12-28T05:19:32.503Z,67.23
2022-12-28T05:21:59.450Z,67.23
2022-12-28T05:24:26.539Z,66.84
2022-12-28T05:26:53.599Z,66.89
2022-12-28T05:29:20.579Z,66.54
2022-12-28T05:31:47.588Z,65.70
2022-12-28T05:34:14.591Z,65.75
2022-12-28T05:36:43.845Z,65.90
2022-12-28T05:39:10.793Z,66.18
2022-12-28T05:41:37.620Z,66.31
2022-12-28T05:44:04.821Z,65.73
2022-12-28T05:46:34.133Z,65.76
2022-12-28T05:49:01.201Z,64.99
2022-12-28T05:51:31.209Z,64.91
2022-12-28T05:54:01.056Z,64.75
2022-12-28T05:56:29.482Z,65.44
2022-12-28T05:59:01.852Z,65.21
2022-12-28T06:01:31.563Z,64.78
2022-12-28T06:04:04.219Z,64.92
2022-12-28T06:06:33.241Z,64.73
2022-12-28T06:09:00.587Z,64.74
2022-12-28T06:11:29.433Z,64.87
2022-12-28T06:13:57.788Z,65.22
2022-12-28T06:16:30.627Z,65.25
2022-12-28T06:18:58.100Z,65.49
2022-12-28T06:21:30.657Z,65.87
2022-12-28T06:23:59.190Z,66.13
2022-12-28T06:26:28.374Z,66.44
2022-12-28T06:28:55.420Z,66.25
2022-12-28T06:31:25.431Z,66.09
2022-12-28T06:33:55.026Z,67.00
2022-12-28T06:36:23.205Z,66.37
2022-12-28T06:38:53.637Z,66.54
2022-12-28T06:41:21.937Z,67.13
2022-12-28T06:43:50.529Z,67.93
2022-12-28T06:46:19.729Z,67.61
2022-12-28T06:48:46.952Z,67.34
2022-12-28T06:51:19.220Z,67.58
2022-12-28T06:53:47.511Z,67.38
2022-12-28T06:56:18.597Z,67.88
2022-12-28T06:58:47.082Z,67.87
2022-12-28T07:01:18.450Z,68.07
2022-12-28T07:03:47.701Z,67.63
2022-12-28T07:06:16.961Z,67.21
2022-12-28T07:08:44.799Z,67.29
2022-12-28T07:11:15.487Z,66.76
2022-12-28T07:13:42.726Z,66.56
2022-12-28T07:18:55.662Z,66.51
2022-12-28T07:21:25.289Z,66.63
2022-12-28T07:23:53.911Z,66.45
2022-12-28T07:26:24.460Z,66.77
2022-12-28T07:28:54.395Z,66.32
2022-12-28T07:31:30.205Z,65.91
2022-12-28T07:33:59.914Z,65.10
2022-12-28T07:36:29.047Z,65.60
2022-12-28T07:38:56.482Z,65.59
2022-12-28T07:41:29.288Z,66.97
2022-12-28T07:43:58.646Z,67.32
2022-12-28T07:46:28.670Z,66.72
2022-12-28T07:48:57.204Z,67.31
2022-12-28T07:51:32.223Z,67.61
2022-12-28T07:54:00.128Z,68.17
2022-12-28T07:56:28.554Z,68.13
2022-12-28T07:59:00.641Z,68.10
2022-12-28T08:01:32.302Z,67.14
2022-12-28T08:04:06.489Z,67.58
2022-12-28T08:06:36.340Z,68.02
2022-12-28T08:09:05.694Z,67.77
2022-12-28T08:11:34.678Z,67.07
2022-12-28T08:14:02.812Z,67.19
2022-12-28T08:16:33.538Z,66.65
2022-12-28T08:19:01.013Z,66.09
2022-12-28T08:21:31.904Z,65.99
2022-12-28T08:23:59.476Z,65.86
2022-12-28T08:26:35.331Z,65.53
2022-12-28T08:29:06.270Z,65.64
2022-12-28T08:31:36.644Z,65.26
2022-12-28T08:34:06.105Z,64.89
2022-12-28T08:36:33.059Z,64.46
2022-12-28T08:39:01.179Z,64.07
2022-12-28T08:41:29.525Z,63.78
2022-12-28T08:43:56.777Z,63.50
2022-12-28T08:46:32.414Z,63.52
2022-12-28T08:49:00.764Z,64.38
2022-12-28T08:51:32.006Z,63.87
2022-12-28T08:54:01.037Z,64.03
2022-12-28T08:56:30.585Z,63.56
2022-12-28T08:58:58.490Z,62.99
2022-12-28T09:01:29.460Z,62.92
2022-12-28T09:03:58.952Z,63.65
2022-12-28T09:06:34.313Z,63.87
2022-12-28T09:09:06.134Z,64.56
2022-12-28T09:11:35.736Z,64.07
2022-12-28T09:14:05.310Z,64.31
2022-12-28T09:16:32.720Z,63.47
2022-12-28T09:19:01.602Z,63.78
2022-12-28T09:21:32.844Z,64.74
2022-12-28T09:24:00.160Z,64.72
2022-12-28T09:26:33.919Z,64.49
2022-12-28T09:29:04.137Z,64.46
2022-12-28T09:31:33.573Z,64.98
2022-12-28T09:36:47.798Z,65.84
2022-12-28T09:39:20.882Z,65.09
2022-12-28T09:42:21.629Z,66.00
2022-12-28T09:45:06.149Z,64.97
2022-12-28T09:47:42.280Z,65.02
2022-12-28T09:50:09.098Z,65.09
2022-12-28T09:53:16.030Z,64.50
2022-12-28T09:55:53.775Z,64.50
2022-12-28T09:58:22.059Z,64.63
2022-12-28T10:00:56.102Z,64.38
2022-12-28T10:03:36.694Z,63.64
2022-12-28T10:06:09.870Z,63.89
2022-12-28T10:08:42.819Z,63.48
2022-12-28T10:11:15.362Z,63.19
2022-12-28T10:13:57.628Z,62.83
2022-12-28T10:16:28.232Z,62.67
2022-12-28T10:18:55.639Z,62.91
2022-12-28T10:21:31.935Z,62.18
2022-12-28T10:26:47.936Z,62.29
2022-12-28T10:29:23.685Z,62.10
2022-12-28T10:32:04.105Z,61.74
2022-12-28T10:34:34.340Z,61.56
2022-12-28T10:37:16.824Z,61.62
2022-12-28T10:39:54.164Z,61.59
2022-12-28T10:42:25.038Z,61.23
2022-12-28T10:44:53.041Z,61.20
2022-12-28T10:47:44.449Z,61.24
2022-12-28T10:50:42.651Z,61.09
2022-12-28T10:53:16.883Z,60.81
2022-12-28T10:55:44.850Z,60.93
2022-12-28T10:58:29.974Z,60.74
2022-12-28T11:01:19.685Z,60.37
2022-12-28T11:03:46.591Z,60.24
2022-12-28T11:06:21.303Z,60.13
2022-12-28T11:09:20.350Z,60.74
2022-12-28T11:11:49.183Z,60.45
2022-12-28T11:14:30.902Z,60.14
2022-12-28T11:16:58.057Z,60.09
2022-12-28T11:19:26.042Z,59.55
2022-12-28T11:21:53.691Z,59.33
2022-12-28T11:24:27.159Z,59.21
2022-12-28T11:26:54.552Z,59.67
2022-12-28T11:29:21.532Z,58.91
2022-12-28T11:31:57.981Z,58.79
2022-12-28T11:34:27.976Z,58.66
2022-12-28T11:36:55.736Z,59.14
2022-12-28T11:39:25.663Z,59.16
2022-12-28T11:42:19.557Z,59.51
2022-12-28T11:44:41.192Z,59.65
2022-12-28T11:47:17.347Z,59.55
2022-12-28T11:49:46.657Z,59.55
2022-12-28T11:52:16.427Z,59.73
2022-12-28T11:54:52.581Z,59.72
2022-12-28T11:57:43.519Z,60.27
2022-12-28T12:00:21.844Z,60.43
2022-12-28T12:02:58.316Z,60.91
2022-12-28T12:05:36.683Z,60.97
2022-12-28T12:08:23.485Z,60.61
2022-12-28T12:11:19.169Z,60.23
2022-12-28T12:13:50.868Z,60.18
2022-12-28T12:16:20.876Z,60.34
2022-12-28T12:18:54.700Z,60.16
2022-12-28T12:21:33.269Z,60.22
2022-12-28T12:24:18.911Z,60.21
2022-12-28T12:26:51.425Z,60.63
2022-12-28T12:29:41.044Z,60.88
2022-12-28T12:32:45.094Z,62.02
2022-12-28T12:35:23.497Z,62.77
2022-12-28T12:38:20.624Z,63.31
2022-12-28T12:41:28.794Z,63.16
2022-12-28T12:44:14.307Z,63.61
2022-12-28T12:47:05.393Z,63.63
2022-12-28T12:49:57.860Z,64.01
2022-12-28T12:52:30.150Z,63.80
2022-12-28T12:55:09.343Z,63.68
2022-12-28T12:57:45.395Z,62.61
2022-12-28T13:00:17.896Z,62.68
2022-12-28T13:02:48.033Z,62.44
2022-12-28T13:05:19.902Z,62.00
2022-12-28T13:07:49.804Z,62.32
2022-12-28T13:10:32.014Z,62.33
2022-12-28T13:13:02.431Z,61.87
2022-12-28T13:15:30.554Z,61.75
2022-12-28T13:21:12.324Z,61.78
2022-12-28T13:23:45.111Z,62.45
2022-12-28T13:26:15.562Z,62.60
2022-12-28T13:29:08.306Z,62.43
2022-12-28T13:31:38.482Z,61.74
2022-12-28T13:34:16.566Z,62.30
2022-12-28T13:36:56.796Z,61.70
2022-12-28T13:39:35.437Z,61.83
2022-12-28T13:42:19.209Z,62.97
2022-12-28T13:44:51.028Z,62.77
2022-12-28T13:47:33.291Z,64.40
2022-12-28T13:50:02.309Z,65.22
2022-12-28T13:52:38.064Z,65.51
2022-12-28T13:55:17.721Z,65.83
2022-12-28T13:57:54.221Z,66.40
2022-12-28T14:00:25.084Z,66.23
2022-12-28T14:02:55.754Z,66.50
2022-12-28T14:05:26.711Z,66.63
2022-12-28T14:07:56.433Z,66.79
2022-12-28T14:10:24.350Z,67.18
2022-12-28T14:12:52.751Z,67.32
2022-12-28T14:15:20.825Z,67.52
2022-12-28T14:17:50.694Z,67.67
2022-12-28T14:20:18.522Z,67.61
2022-12-28T14:22:45.668Z,67.73
2022-12-28T14:25:17.483Z,67.76
2022-12-28T14:27:57.179Z,67.78
2022-12-28T14:30:33.028Z,68.27
2022-12-28T14:33:19.409Z,68.46
2022-12-28T14:35:54.119Z,68.66
2022-12-28T14:38:34.597Z,68.97
2022-12-28T14:41:04.229Z,68.87
2022-12-28T14:43:37.055Z,69.10
2022-12-28T14:46:30.255Z,69.09
2022-12-28T14:48:57.419Z,69.43
2022-12-28T14:51:32.810Z,69.71
2022-12-28T14:54:17.425Z,69.37
2022-12-28T14:56:53.492Z,69.34
2022-12-28T14:59:26.308Z,69.11
2022-12-28T15:01:53.830Z,69.16
2022-12-28T15:04:36.116Z,69.49
2022-12-28T15:07:09.187Z,69.55
2022-12-28T15:09:36.897Z,69.40
2022-12-28T15:12:23.163Z,69.54
2022-12-28T15:14:50.816Z,69.57
2022-12-28T15:17:18.541Z,69.50
2022-12-28T15:19:45.999Z,69.92
2022-12-28T15:22:13.484Z,69.86
2022-12-28T15:24:45.562Z,69.71
2022-12-28T15:27:12.750Z,69.84
2022-12-28T15:32:27.836Z,70.30
2022-12-28T15:34:55.006Z,70.21
2022-12-28T15:37:21.922Z,70.28
2022-12-28T15:39:49.395Z,70.71
2022-12-28T15:42:16.337Z,70.41
2022-12-28T15:44:43.195Z,70.21
2022-12-28T15:47:10.695Z,70.53
2022-12-28T15:49:37.708Z,70.71
2022-12-28T15:52:04.839Z,70.82
2022-12-28T15:54:31.788Z,71.25
2022-12-28T15:57:00.189Z,71.14
2022-12-28T15:59:28.879Z,71.24
2022-12-28T16:01:56.383Z,71.59
2022-12-28T16:04:23.467Z,71.85
2022-12-28T16:06:50.536Z,71.94
2022-12-28T16:09:17.520Z,71.70
2022-12-28T16:11:45.701Z,71.50
2022-12-28T16:14:16.436Z,71.66
2022-12-28T16:16:44.866Z,71.74
2022-12-28T16:19:13.863Z,71.73
2022-12-28T16:21:41.441Z,71.93
2022-12-28T16:24:09.405Z,71.99
2022-12-28T16:26:36.728Z,72.12
2022-12-28T16:29:03.701Z,72.26
2022-12-28T16:31:36.202Z,72.52
2022-12-28T16:34:21.270Z,72.34
2022-12-28T16:36:48.433Z,72.59
2022-12-28T16:39:17.778Z,72.94
2022-12-28T16:41:45.310Z,72.99
2022-12-28T16:44:18.875Z,73.37
2022-12-28T16:46:46.412Z,73.76
2022-12-28T16:49:13.649Z,73.82
2022-12-28T16:51:43.930Z,73.97
2022-12-28T16:54:22.226Z,73.93
2022-12-28T16:56:50.929Z,74.15
2022-12-28T16:59:26.545Z,74.38
2022-12-28T17:01:56.008Z,74.46
2022-12-28T17:04:23.413Z,74.80
2022-12-28T17:06:51.843Z,74.59
2022-12-28T17:09:19.604Z,74.59
2022-12-28T17:11:48.140Z,74.65
2022-12-28T17:14:17.507Z,74.62
2022-12-28T17:16:51.486Z,74.49
2022-12-28T17:19:18.542Z,74.45
2022-12-28T17:21:45.508Z,74.61
2022-12-28T17:24:12.999Z,74.34
2022-12-28T17:26:40.142Z,74.20
2022-12-28T17:29:07.214Z,74.13
2022-12-28T17:31:34.216Z,74.15
2022-12-28T17:34:02.964Z,74.12
2022-12-28T17:36:30.136Z,74.02
2022-12-28T17:38:57.560Z,74.27
2022-12-28T17:41:27.554Z,74.43
2022-12-28T17:43:57.195Z,74.39
2022-12-28T17:46:27.952Z,74.09
2022-12-28T17:48:56.828Z,74.19
2022-12-28T17:51:25.515Z,74.49
2022-12-28T17:53:55.255Z,74.65
2022-12-28T17:56:22.274Z,74.82
2022-12-28T17:58:54.752Z,74.77
2022-12-28T18:01:22.197Z,75.07
2022-12-28T18:03:49.341Z,75.01
2022-12-28T18:06:16.312Z,75.23
2022-12-28T18:08:43.316Z,75.18
2022-12-28T18:11:11.403Z,75.34
2022-12-28T18:13:43.009Z,75.14
2022-12-28T18:16:15.434Z,75.26
2022-12-28T18:18:43.247Z,75.58
2022-12-28T18:21:20.983Z,75.53
2022-12-28T18:23:50.632Z,75.64
2022-12-28T18:26:21.135Z,75.55
2022-12-28T18:28:48.041Z,75.80
2022-12-28T18:31:15.400Z,75.58
2022-12-28T18:33:43.103Z,75.63
2022-12-28T18:36:16.999Z,75.60
2022-12-28T18:38:47.613Z,75.63
2022-12-28T18:41:17.721Z,75.85
2022-12-28T18:43:45.861Z,76.16
2022-12-28T18:46:13.359Z,76.17
2022-12-28T18:48:41.726Z,76.18
2022-12-28T18:51:14.618Z,76.43
2022-12-28T18:53:42.134Z,76.63
2022-12-28T18:56:12.039Z,76.75
2022-12-28T18:58:40.731Z,76.58
2022-12-28T19:01:55.469Z,76.61
2022-12-28T19:04:05.796Z,76.62
2022-12-28T19:06:33.519Z,76.80
2022-12-28T19:09:00.964Z,76.71
2022-12-28T19:11:28.578Z,76.76
2022-12-28T19:13:55.587Z,76.52
2022-12-28T19:16:28.787Z,76.58
2022-12-28T19:18:58.486Z,76.47
2022-12-28T19:21:37.512Z,75.86
2022-12-28T19:24:12.236Z,75.70
2022-12-28T19:26:40.527Z,75.59
2022-12-28T19:29:08.152Z,75.40
2022-12-28T19:31:35.070Z,75.17
2022-12-28T19:34:02.201Z,75.27
2022-12-28T19:36:29.501Z,74.99
2022-12-28T19:38:57.664Z,75.24
2022-12-28T19:41:25.458Z,75.12
2022-12-28T19:43:52.644Z,75.29
2022-12-28T19:46:30.953Z,75.03
2022-12-28T19:49:00.172Z,75.10
2022-12-28T19:51:31.385Z,74.98
2022-12-28T19:54:00.094Z,75.24
2022-12-28T19:56:27.615Z,75.40
2022-12-28T19:59:03.086Z,75.15
2022-12-28T20:01:30.963Z,75.41
2022-12-28T20:03:59.397Z,75.16
2022-12-28T20:06:28.947Z,75.06
2022-12-28T20:08:58.577Z,74.86
2022-12-28T20:11:26.703Z,74.99
2022-12-28T20:13:59.716Z,75.15
2022-12-28T20:16:28.848Z,75.25
2022-12-28T20:18:56.233Z,75.19
2022-12-28T20:21:25.491Z,75.42
2022-12-28T20:23:53.559Z,75.54
2022-12-28T20:26:22.216Z,75.68
2022-12-28T20:28:50.857Z,75.50
2022-12-28T20:31:18.232Z,75.65
2022-12-28T20:33:46.363Z,75.82
2022-12-28T20:36:16.048Z,75.89
2022-12-28T20:38:43.234Z,75.70
2022-12-28T20:41:32.964Z,75.92
2022-12-28T20:44:01.550Z,76.06
2022-12-28T20:46:29.353Z,76.25
2022-12-28T20:48:56.657Z,76.12
2022-12-28T20:51:23.669Z,76.37
2022-12-28T20:53:50.763Z,76.48
2022-12-28T20:56:18.284Z,76.54
2022-12-28T20:58:45.375Z,76.34
2022-12-28T21:01:15.239Z,76.64
2022-12-28T21:03:44.318Z,76.55
2022-12-28T21:06:11.973Z,77.02
2022-12-28T21:08:39.431Z,77.29
2022-12-28T21:11:06.545Z,77.71
2022-12-28T21:13:33.546Z,77.88
2022-12-28T21:16:04.453Z,78.08
2022-12-28T21:18:32.010Z,78.46
2022-12-28T21:21:00.252Z,78.85
2022-12-28T21:23:29.363Z,78.75
2022-12-28T21:26:03.153Z,79.02
2022-12-28T21:28:30.449Z,79.17
2022-12-28T21:30:58.123Z,79.44
2022-12-28T21:33:25.155Z,79.48
2022-12-28T21:36:03.521Z,79.78
2022-12-28T21:38:32.152Z,79.79
2022-12-28T21:41:04.791Z,80.11
2022-12-28T21:43:32.161Z,80.20
2022-12-28T21:46:04.802Z,80.23
2022-12-28T21:48:33.445Z,80.07
2022-12-28T21:51:31.582Z,80.27
2022-12-28T21:54:00.653Z,80.41
2022-12-28T21:56:28.795Z,80.50
2022-12-28T21:58:56.907Z,80.56
2022-12-28T22:01:43.723Z,80.57
2022-12-28T22:04:35.095Z,80.67
2022-12-28T22:07:03.029Z,81.00
2022-12-28T22:09:48.778Z,80.98
2022-12-28T22:12:34.252Z,80.73
2022-12-28T22:15:28.023Z,80.90
2022-12-28T22:17:57.797Z,80.88
2022-12-28T22:20:25.984Z,81.01
2022-12-28T22:22:56.521Z,81.02
2022-12-28T22:25:24.318Z,81.15
2022-12-28T22:27:51.539Z,81.28
2022-12-28T22:30:18.746Z,81.23
2022-12-28T22:32:45.834Z,81.49
2022-12-28T22:35:12.869Z,81.65
2022-12-28T22:37:41.019Z,81.59
2022-12-28T22:40:08.854Z,81.79
2022-12-28T22:42:39.596Z,81.91
2022-12-28T22:45:07.165Z,81.87
2022-12-28T22:47:34.077Z,81.49
2022-12-28T22:50:00.944Z,81.74
2022-12-28T22:52:28.033Z,81.23
2022-12-28T22:54:54.935Z,81.50
2022-12-28T22:57:21.917Z,81.22
2022-12-28T22:59:48.730Z,81.10
2022-12-28T23:02:15.715Z,81.18
2022-12-28T23:04:42.875Z,80.99
2022-12-28T23:07:09.800Z,80.83
2022-12-28T23:09:36.781Z,80.79
2022-12-28T23:12:03.993Z,80.74
2022-12-28T23:14:49.610Z,80.90
2022-12-28T23:17:17.289Z,80.85
2022-12-28T23:20:04.824Z,80.40
2022-12-28T23:22:53.529Z,80.30
2022-12-28T23:25:41.892Z,80.87
2022-12-28T23:28:12.209Z,80.62
2022-12-28T23:30:43.674Z,80.45
2022-12-28T23:33:11.305Z,80.32
2022-12-28T23:35:38.354Z,80.06
2022-12-28T23:38:05.266Z,80.13
2022-12-28T23:40:32.222Z,79.95
2022-12-28T23:43:00.346Z,79.50
2022-12-28T23:45:27.180Z,79.54
2022-12-28T23:47:54.194Z,79.81
2022-12-28T23:50:21.321Z,79.54
2022-12-28T23:52:48.301Z,79.55
2022-12-28T23:55:15.513Z,79.48
2022-12-28T23:57:43.401Z,79.66
